createdAt,value
2022-09-27T00:00:17.616Z,10.80
2022-09-27T00:01:51.129Z,10.80
2022-09-27T00:03:24.552Z,10.80
2022-09-27T00:04:58.686Z,10.80
2022-09-27T00:06:37.439Z,10.80
2022-09-27T00:09:27.125Z,10.80
2022-09-27T00:11:39.136Z,10.80
2022-09-27T00:13:12.695Z,10.80
2022-09-27T00:14:47.353Z,10.80
2022-09-27T00:16:21.227Z,10.80
2022-09-27T00:17:55.131Z,10.70
2022-09-27T00:19:27.436Z,10.80
2022-09-27T00:21:08.480Z,10.70
2022-09-27T00:22:42.113Z,10.70
2022-09-27T00:24:19.146Z,10.70
2022-09-27T00:25:59.975Z,10.70
2022-09-27T00:27:33.389Z,10.70
2022-09-27T00:29:06.833Z,10.70
2022-09-27T00:30:43.672Z,10.70
2022-09-27T00:32:17.436Z,10.70
2022-09-27T00:33:53.321Z,10.60
2022-09-27T00:35:27.161Z,10.60
2022-09-27T00:37:00.513Z,10.70
2022-09-27T00:38:33.796Z,10.70
2022-09-27T00:40:08.696Z,10.70
2022-09-27T00:41:42.055Z,10.70
2022-09-27T00:43:21.588Z,10.60
2022-09-27T00:45:15.077Z,10.70
2022-09-27T00:46:55.602Z,10.70
2022-09-27T00:48:36.756Z,10.70
2022-09-27T00:50:23.008Z,10.70
2022-09-27T00:52:03.470Z,10.70
2022-09-27T00:53:46.281Z,10.70
2022-09-27T00:55:26.275Z,10.70
2022-09-27T00:57:01.165Z,10.70
2022-09-27T00:58:43.496Z,10.70
2022-09-27T01:00:18.960Z,10.70
2022-09-27T01:01:57.744Z,10.70
2022-09-27T01:03:45.794Z,10.70
2022-09-27T01:05:27.497Z,10.70
2022-09-27T01:07:04.916Z,10.70
2022-09-27T01:08:42.640Z,10.70
2022-09-27T01:10:22.783Z,10.70
2022-09-27T01:12:14.165Z,10.70
2022-09-27T01:14:20.446Z,10.70
2022-09-27T01:16:09.707Z,10.70
2022-09-27T01:18:03.723Z,10.70
2022-09-27T01:20:14.186Z,10.70
2022-09-27T01:22:00.104Z,10.70
2022-09-27T01:24:28.485Z,10.70
2022-09-27T01:26:18.109Z,10.60
2022-09-27T01:28:21.012Z,10.60
2022-09-27T01:30:20.999Z,10.60
2022-09-27T01:32:08.470Z,10.60
2022-09-27T01:33:48.610Z,10.60
2022-09-27T01:35:32.418Z,10.60
2022-09-27T01:37:21.474Z,10.60
2022-09-27T01:39:12.122Z,10.60
2022-09-27T01:41:13.762Z,10.60
2022-09-27T01:43:13.448Z,10.60
2022-09-27T01:44:55.870Z,10.60
2022-09-27T01:46:40.294Z,10.60
2022-09-27T01:48:42.666Z,10.60
2022-09-27T01:50:34.014Z,10.60
2022-09-27T01:52:12.247Z,10.50
2022-09-27T01:53:50.201Z,10.60
2022-09-27T01:55:49.011Z,10.60
2022-09-27T01:57:50.185Z,10.60
2022-09-27T01:59:39.370Z,10.50
2022-09-27T02:01:27.492Z,10.50
2022-09-27T02:03:10.127Z,10.50
2022-09-27T02:05:08.397Z,10.50
2022-09-27T02:06:48.399Z,10.50
2022-09-27T02:08:37.687Z,10.50
2022-09-27T02:10:23.795Z,10.50
2022-09-27T02:12:09.599Z,10.50
2022-09-27T02:13:51.044Z,10.50
2022-09-27T02:15:57.206Z,10.50
2022-09-27T02:17:54.920Z,10.50
2022-09-27T02:19:47.805Z,10.50
2022-09-27T02:21:26.441Z,10.40
2022-09-27T02:23:14.688Z,10.40
2022-09-27T02:24:58.421Z,10.40
2022-09-27T02:26:41.797Z,10.40
2022-09-27T02:28:27.365Z,10.50
2022-09-27T02:30:07.094Z,10.40
2022-09-27T02:31:43.125Z,10.40
2022-09-27T02:33:16.965Z,10.40
2022-09-27T02:34:53.593Z,10.40
2022-09-27T02:36:27.444Z,10.40
2022-09-27T02:38:02.715Z,10.40
2022-09-27T02:39:36.379Z,10.40
2022-09-27T02:41:17.231Z,10.40
2022-09-27T02:42:51.307Z,10.40
2022-09-27T02:44:26.786Z,10.40
2022-09-27T02:46:21.371Z,10.40
2022-09-27T02:48:16.406Z,10.40
2022-09-27T02:50:06.959Z,10.40
2022-09-27T02:52:14.854Z,10.40
2022-09-27T02:54:09.264Z,10.40
2022-09-27T02:56:12.781Z,10.40
2022-09-27T02:58:22.782Z,10.30
2022-09-27T03:00:37.771Z,10.30
2022-09-27T03:02:39.623Z,10.30
2022-09-27T03:04:49.365Z,10.30
2022-09-27T03:06:25.401Z,10.30
2022-09-27T03:07:59.731Z,10.20
2022-09-27T03:09:44.895Z,10.20
2022-09-27T03:11:18.530Z,10.20
2022-09-27T03:12:53.336Z,10.20
2022-09-27T03:14:26.952Z,10.20
2022-09-27T03:16:09.119Z,10.20
2022-09-27T03:18:03.052Z,10.20
2022-09-27T03:19:57.973Z,10.20
2022-09-27T03:21:51.699Z,10.20
2022-09-27T03:23:25.663Z,10.20
2022-09-27T03:24:59.476Z,10.20
2022-09-27T03:26:33.131Z,10.20
2022-09-27T03:28:06.804Z,10.20
2022-09-27T03:29:41.477Z,10.20
2022-09-27T03:31:16.368Z,10.20
2022-09-27T03:32:57.148Z,10.20
2022-09-27T03:34:51.323Z,10.20
2022-09-27T03:36:25.210Z,10.20
2022-09-27T03:37:58.786Z,10.20
2022-09-27T03:39:33.136Z,10.20
2022-09-27T03:41:07.579Z,10.20
2022-09-27T03:42:44.048Z,10.20
2022-09-27T03:44:20.206Z,10.20
2022-09-27T03:45:53.765Z,10.20
2022-09-27T03:47:27.331Z,10.20
2022-09-27T03:49:01.123Z,10.10
2022-09-27T03:50:36.344Z,10.10
2022-09-27T03:52:09.852Z,10.10
2022-09-27T03:53:43.816Z,10.10
2022-09-27T03:55:20.425Z,10.10
2022-09-27T03:56:54.287Z,10.10
2022-09-27T03:58:27.943Z,10.10
2022-09-27T04:00:01.220Z,10.10
2022-09-27T04:02:03.335Z,10.10
2022-09-27T04:03:57.107Z,10.10
2022-09-27T04:05:37.774Z,10.10
2022-09-27T04:07:17.507Z,10.10
2022-09-27T04:08:51.332Z,10.10
2022-09-27T04:10:25.937Z,10.10
2022-09-27T04:11:59.395Z,10.10
2022-09-27T04:13:34.061Z,10.10
2022-09-27T04:15:08.285Z,10.10
2022-09-27T04:17:11.987Z,10.10
2022-09-27T04:19:02.688Z,10.10
2022-09-27T04:20:57.419Z,10.10
2022-09-27T04:22:31.795Z,10.00
2022-09-27T04:24:05.365Z,10.00
2022-09-27T04:25:40.508Z,10.00
2022-09-27T04:27:22.726Z,10.00
2022-09-27T04:28:56.842Z,10.00
2022-09-27T04:30:31.055Z,10.00
2022-09-27T04:32:34.753Z,10.00
2022-09-27T04:34:45.874Z,9.90
2022-09-27T04:36:29.831Z,9.90
2022-09-27T04:38:07.311Z,9.90
2022-09-27T04:39:41.056Z,9.90
2022-09-27T04:41:15.456Z,9.90
2022-09-27T04:42:49.248Z,9.90
2022-09-27T04:44:21.708Z,9.90
2022-09-27T04:45:57.250Z,9.90
2022-09-27T04:47:30.872Z,9.80
2022-09-27T04:49:06.060Z,9.80
2022-09-27T04:50:41.526Z,9.80
2022-09-27T04:52:15.764Z,9.80
2022-09-27T04:53:49.612Z,9.80
2022-09-27T04:55:24.372Z,9.80
2022-09-27T04:56:58.100Z,9.70
2022-09-27T04:58:33.506Z,9.80
2022-09-27T05:00:10.146Z,9.80
2022-09-27T05:01:45.160Z,9.80
2022-09-27T05:03:34.648Z,9.80
2022-09-27T05:05:17.195Z,9.80
2022-09-27T05:06:56.280Z,9.70
2022-09-27T05:08:38.656Z,9.70
2022-09-27T05:10:26.224Z,9.70
2022-09-27T05:11:59.741Z,9.70
2022-09-27T05:13:46.106Z,9.70
2022-09-27T05:15:19.799Z,9.70
2022-09-27T05:17:16.552Z,9.70
2022-09-27T05:19:07.791Z,9.70
2022-09-27T05:21:01.331Z,9.70
2022-09-27T05:22:42.021Z,9.70
2022-09-27T05:24:15.962Z,9.70
2022-09-27T05:25:49.483Z,9.70
2022-09-27T05:27:23.028Z,9.80
2022-09-27T05:28:56.891Z,9.70
2022-09-27T05:30:31.763Z,9.70
2022-09-27T05:32:15.145Z,9.80
2022-09-27T05:33:50.595Z,9.80
2022-09-27T05:35:51.107Z,9.80
2022-09-27T05:37:25.103Z,9.70
2022-09-27T05:38:58.855Z,9.80
2022-09-27T05:40:41.694Z,9.70
2022-09-27T05:42:17.665Z,9.70
2022-09-27T05:43:52.607Z,9.70
2022-09-27T05:45:27.099Z,9.80
2022-09-27T05:47:04.222Z,9.80
2022-09-27T05:48:38.375Z,9.80
2022-09-27T05:50:13.709Z,9.80
2022-09-27T05:51:49.046Z,9.80
2022-09-27T05:53:22.635Z,9.80
2022-09-27T05:54:56.187Z,9.80
2022-09-27T05:56:29.691Z,9.70
2022-09-27T05:58:32.744Z,9.80
2022-09-27T06:00:18.267Z,9.80
2022-09-27T06:02:05.331Z,9.70
2022-09-27T06:03:58.916Z,9.70
2022-09-27T06:05:53.156Z,9.80
2022-09-27T06:07:41.672Z,9.80
2022-09-27T06:09:23.284Z,9.70
2022-09-27T06:11:04.285Z,9.80
2022-09-27T06:12:38.744Z,9.80
2022-09-27T06:14:22.167Z,9.80
2022-09-27T06:16:06.697Z,9.80
2022-09-27T06:17:42.930Z,9.80
2022-09-27T06:19:22.214Z,9.70
2022-09-27T06:20:56.513Z,9.80
2022-09-27T06:22:30.108Z,9.80
2022-09-27T06:24:07.164Z,9.70
2022-09-27T06:25:43.131Z,9.70
2022-09-27T06:27:36.501Z,9.80
2022-09-27T06:29:13.387Z,9.80
2022-09-27T06:30:53.910Z,9.80
2022-09-27T06:32:48.896Z,9.80
2022-09-27T06:34:28.426Z,9.80
2022-09-27T06:36:04.215Z,9.80
2022-09-27T06:37:38.529Z,9.80
2022-09-27T06:39:12.182Z,9.80
2022-09-27T06:41:01.790Z,9.80
2022-09-27T06:42:50.366Z,9.80
2022-09-27T06:44:29.735Z,9.80
2022-09-27T06:46:23.257Z,9.80
2022-09-27T06:48:18.208Z,9.80
2022-09-27T06:50:05.708Z,9.80
2022-09-27T06:51:40.395Z,9.80
2022-09-27T06:53:16.971Z,9.90
2022-09-27T06:54:50.534Z,9.90
2022-09-27T06:56:24.134Z,9.90
2022-09-27T06:58:20.383Z,9.90
2022-09-27T07:00:26.972Z,9.90
2022-09-27T07:02:20.596Z,9.90
2022-09-27T07:04:07.245Z,9.90
2022-09-27T07:05:58.905Z,9.90
2022-09-27T07:07:56.108Z,9.90
2022-09-27T07:09:29.708Z,9.90
2022-09-27T07:11:06.459Z,9.90
2022-09-27T07:12:41.272Z,9.80
2022-09-27T07:14:17.383Z,9.90
2022-09-27T07:15:50.982Z,9.90
2022-09-27T07:17:24.795Z,9.90
2022-09-27T07:18:59.141Z,9.90
2022-09-27T07:20:37.156Z,9.90
2022-09-27T07:22:11.282Z,9.80
2022-09-27T07:23:46.440Z,9.90
2022-09-27T07:25:21.267Z,9.90
2022-09-27T07:26:56.294Z,9.80
2022-09-27T07:28:30.749Z,9.90
2022-09-27T07:30:07.240Z,9.90
2022-09-27T07:31:42.671Z,9.90
2022-09-27T07:33:16.858Z,9.90
2022-09-27T07:34:50.529Z,9.90
2022-09-27T07:36:25.611Z,9.90
2022-09-27T07:37:59.985Z,9.90
2022-09-27T07:39:34.014Z,9.90
2022-09-27T07:41:10.758Z,9.90
2022-09-27T07:42:44.663Z,9.90
2022-09-27T07:44:18.422Z,9.80
2022-09-27T07:46:13.412Z,9.80
2022-09-27T07:47:56.150Z,9.80
2022-09-27T07:49:45.557Z,9.80
2022-09-27T07:51:40.345Z,9.90
2022-09-27T07:53:33.871Z,9.80
2022-09-27T07:55:27.791Z,9.80
2022-09-27T07:57:11.201Z,9.80
2022-09-27T07:58:53.681Z,9.80
2022-09-27T08:00:27.386Z,9.80
2022-09-27T08:02:01.467Z,9.80
2022-09-27T08:03:36.132Z,9.90
2022-09-27T08:05:10.892Z,9.90
2022-09-27T08:06:47.488Z,9.90
2022-09-27T08:08:21.594Z,9.90
2022-09-27T08:09:57.375Z,9.90
2022-09-27T08:11:30.895Z,9.90
2022-09-27T08:13:06.424Z,9.90
2022-09-27T08:14:44.972Z,9.90
2022-09-27T08:16:21.990Z,9.90
2022-09-27T08:18:16.378Z,10.00
2022-09-27T08:20:10.757Z,10.00
2022-09-27T08:22:05.795Z,10.00
2022-09-27T08:23:46.781Z,10.00
2022-09-27T08:25:25.395Z,10.00
2022-09-27T08:27:19.377Z,10.00
2022-09-27T08:28:57.069Z,10.00
2022-09-27T08:30:33.813Z,10.00
2022-09-27T08:32:08.500Z,10.00
2022-09-27T08:33:42.166Z,10.00
2022-09-27T08:35:17.180Z,10.00
2022-09-27T08:36:51.414Z,10.00
2022-09-27T08:38:26.908Z,10.10
2022-09-27T08:40:00.718Z,10.10
2022-09-27T08:41:41.747Z,10.10
2022-09-27T08:43:30.826Z,10.10
2022-09-27T08:45:14.983Z,10.10
2022-09-27T08:47:03.718Z,10.10
2022-09-27T08:48:40.469Z,10.20
2022-09-27T08:50:27.630Z,10.20
2022-09-27T08:52:05.119Z,10.20
2022-09-27T08:53:49.203Z,10.20
2022-09-27T08:55:37.295Z,10.20
2022-09-27T08:57:17.990Z,10.20
2022-09-27T08:58:59.990Z,10.20
2022-09-27T09:00:39.622Z,10.20
2022-09-27T09:02:21.308Z,10.20
2022-09-27T09:04:04.186Z,10.20
2022-09-27T09:05:39.424Z,10.20
2022-09-27T09:07:43.118Z,10.20
2022-09-27T09:09:35.279Z,10.20
2022-09-27T09:11:59.998Z,10.20
2022-09-27T09:13:54.004Z,10.20
2022-09-27T09:15:55.162Z,10.20
2022-09-27T09:17:51.021Z,10.20
2022-09-27T09:19:58.655Z,10.20
2022-09-27T09:21:57.696Z,10.20
2022-09-27T09:24:04.661Z,10.20
2022-09-27T09:25:54.948Z,10.20
2022-09-27T09:27:44.230Z,10.20
2022-09-27T09:29:41.027Z,10.20
2022-09-27T09:31:29.966Z,10.20
2022-09-27T09:33:19.646Z,10.20
2022-09-27T09:35:01.972Z,10.20
2022-09-27T09:36:43.930Z,10.20
2022-09-27T09:38:25.151Z,10.20
2022-09-27T09:40:09.160Z,10.20
2022-09-27T09:42:03.186Z,10.20
2022-09-27T09:43:44.013Z,10.30
2022-09-27T09:45:23.101Z,10.30
2022-09-27T09:47:01.640Z,10.30
2022-09-27T09:48:45.828Z,10.30
2022-09-27T09:50:27.278Z,10.30
2022-09-27T09:52:09.091Z,10.30
2022-09-27T09:53:52.523Z,10.30
2022-09-27T09:55:37.358Z,10.30
2022-09-27T09:57:19.517Z,10.40
2022-09-27T09:59:02.253Z,10.40
2022-09-27T10:00:42.767Z,10.40
2022-09-27T10:02:32.522Z,10.40
2022-09-27T10:04:20.980Z,10.40
2022-09-27T10:05:54.741Z,10.40
2022-09-27T10:07:30.169Z,10.50
2022-09-27T10:09:04.794Z,10.50
2022-09-27T10:10:45.528Z,10.50
2022-09-27T10:12:39.790Z,10.50
2022-09-27T10:14:16.664Z,10.50
2022-09-27T10:16:02.513Z,10.60
2022-09-27T10:17:42.556Z,10.50
2022-09-27T10:19:27.407Z,10.50
2022-09-27T10:21:08.191Z,10.60
2022-09-27T10:22:49.030Z,10.60
2022-09-27T10:24:57.853Z,10.60
2022-09-27T10:26:48.478Z,10.60
2022-09-27T10:28:34.417Z,10.60
2022-09-27T10:30:23.825Z,10.60
2022-09-27T10:31:58.396Z,10.70
2022-09-27T10:33:56.098Z,10.70
2022-09-27T10:35:40.072Z,10.70
2022-09-27T10:37:19.675Z,10.70
2022-09-27T10:39:06.954Z,10.70
2022-09-27T10:40:47.469Z,10.80
2022-09-27T10:42:34.716Z,10.80
2022-09-27T10:44:26.829Z,10.80
2022-09-27T10:46:21.592Z,10.90
2022-09-27T10:47:59.589Z,10.90
2022-09-27T10:49:45.030Z,10.90
2022-09-27T10:51:37.944Z,11.00
2022-09-27T10:53:18.722Z,11.00
2022-09-27T10:54:59.912Z,11.00
2022-09-27T10:56:36.172Z,11.00
2022-09-27T10:58:21.731Z,11.00
2022-09-27T11:00:00.887Z,11.10
2022-09-27T11:01:45.700Z,11.10
2022-09-27T11:03:28.839Z,11.10
2022-09-27T11:05:15.263Z,11.10
2022-09-27T11:06:50.804Z,11.10
2022-09-27T11:08:32.506Z,11.10
2022-09-27T11:10:29.897Z,11.20
2022-09-27T11:12:13.288Z,11.20
2022-09-27T11:14:03.162Z,11.20
2022-09-27T11:16:01.676Z,11.20
2022-09-27T11:17:49.511Z,11.20
2022-09-27T11:19:59.885Z,11.20
2022-09-27T11:21:49.065Z,11.30
2022-09-27T11:23:45.101Z,11.30
2022-09-27T11:25:39.960Z,11.30
2022-09-27T11:27:29.796Z,11.40
2022-09-27T11:29:21.489Z,11.40
2022-09-27T11:31:32.989Z,11.40
2022-09-27T11:33:40.379Z,11.50
2022-09-27T11:35:35.203Z,11.50
2022-09-27T11:37:28.118Z,11.50
2022-09-27T11:39:12.019Z,11.50
2022-09-27T11:41:19.060Z,11.50
2022-09-27T11:43:27.216Z,11.50
2022-09-27T11:45:50.526Z,11.50
2022-09-27T11:47:37.411Z,11.60
2022-09-27T11:49:52.392Z,11.60
2022-09-27T11:51:55.697Z,11.60
2022-09-27T11:53:55.145Z,11.70
2022-09-27T11:55:47.171Z,11.70
2022-09-27T11:57:28.823Z,11.70
2022-09-27T11:59:30.479Z,11.70
2022-09-27T12:01:26.947Z,11.70
2022-09-27T12:03:36.780Z,11.70
2022-09-27T12:05:31.244Z,11.80
2022-09-27T12:07:20.719Z,11.80
2022-09-27T12:09:11.668Z,11.80
2022-09-27T12:10:52.615Z,11.80
2022-09-27T12:12:30.387Z,11.80
2022-09-27T12:14:11.224Z,11.80
2022-09-27T12:15:48.997Z,11.80
2022-09-27T12:17:35.272Z,11.80
2022-09-27T12:19:21.834Z,11.80
2022-09-27T12:21:10.567Z,11.80
2022-09-27T12:22:59.137Z,11.80
2022-09-27T12:24:47.845Z,11.70
2022-09-27T12:26:43.884Z,11.80
2022-09-27T12:28:28.122Z,11.80
2022-09-27T12:30:06.377Z,11.90
2022-09-27T12:31:48.450Z,11.90
2022-09-27T12:33:33.823Z,11.90
2022-09-27T12:35:20.191Z,11.90
2022-09-27T12:37:05.131Z,12.00
2022-09-27T12:38:46.751Z,11.90
2022-09-27T12:40:26.054Z,12.00
2022-09-27T12:42:09.568Z,12.00
2022-09-27T12:43:51.949Z,12.00
2022-09-27T12:45:48.402Z,12.00
2022-09-27T12:47:45.414Z,12.00
2022-09-27T12:49:34.165Z,12.00
2022-09-27T12:51:13.636Z,12.00
2022-09-27T12:52:59.292Z,12.00
2022-09-27T12:54:56.733Z,12.00
2022-09-27T12:56:51.607Z,12.00
2022-09-27T12:59:10.780Z,12.00
2022-09-27T13:00:57.982Z,12.10
2022-09-27T13:03:16.232Z,12.00
2022-09-27T13:05:37.792Z,12.10
2022-09-27T13:07:31.654Z,12.10
2022-09-27T13:09:40.681Z,12.10
2022-09-27T13:11:24.791Z,12.10
2022-09-27T13:13:01.129Z,12.20
2022-09-27T13:14:42.954Z,12.20
2022-09-27T13:16:17.239Z,12.20
2022-09-27T13:17:57.330Z,12.20
2022-09-27T13:19:45.666Z,12.30
2022-09-27T13:21:59.913Z,12.30
2022-09-27T13:23:54.555Z,12.30
2022-09-27T13:25:55.804Z,12.30
2022-09-27T13:27:42.780Z,12.30
2022-09-27T13:29:34.437Z,12.30
2022-09-27T13:31:16.540Z,12.30
2022-09-27T13:33:40.599Z,12.30
2022-09-27T13:35:24.325Z,12.30
2022-09-27T13:37:40.681Z,12.40
2022-09-27T13:39:23.825Z,12.30
2022-09-27T13:41:20.009Z,12.30
2022-09-27T13:43:42.990Z,12.30
2022-09-27T13:45:35.499Z,12.20
2022-09-27T13:47:30.297Z,12.20
2022-09-27T13:49:16.143Z,12.20
2022-09-27T13:51:24.428Z,12.20
2022-09-27T13:53:20.731Z,12.20
2022-09-27T13:54:58.668Z,12.10
2022-09-27T13:56:54.428Z,12.10
2022-09-27T13:58:49.837Z,12.10
2022-09-27T14:00:48.343Z,12.00
2022-09-27T14:02:30.201Z,12.10
2022-09-27T14:04:14.497Z,12.10
2022-09-27T14:05:53.462Z,12.00
2022-09-27T14:07:38.152Z,11.90
2022-09-27T14:09:21.639Z,11.90
2022-09-27T14:11:14.916Z,11.90
2022-09-27T14:12:53.130Z,11.80
2022-09-27T14:14:32.835Z,11.80
2022-09-27T14:16:10.802Z,11.70
2022-09-27T14:17:45.916Z,11.70
2022-09-27T14:19:25.470Z,11.70
2022-09-27T14:21:21.214Z,11.60
2022-09-27T14:23:05.028Z,11.60
2022-09-27T14:24:49.078Z,11.60
2022-09-27T14:26:29.919Z,11.60
2022-09-27T14:28:03.945Z,11.60
2022-09-27T14:29:47.748Z,11.60
2022-09-27T14:31:27.586Z,11.60
2022-09-27T14:33:34.443Z,11.60
2022-09-27T14:35:35.877Z,11.60
2022-09-27T14:37:27.037Z,11.60
2022-09-27T14:39:22.436Z,11.60
2022-09-27T14:41:03.349Z,11.60
2022-09-27T14:42:39.219Z,11.60
2022-09-27T14:44:19.269Z,11.50
2022-09-27T14:45:59.668Z,11.60
2022-09-27T14:47:34.524Z,11.60
2022-09-27T14:49:20.284Z,11.60
2022-09-27T14:51:04.970Z,11.50
2022-09-27T14:52:41.283Z,11.50
2022-09-27T14:54:25.249Z,11.60
2022-09-27T14:55:59.979Z,11.60
2022-09-27T14:57:38.691Z,11.60
2022-09-27T14:59:24.187Z,11.60
2022-09-27T15:01:00.178Z,11.60
2022-09-27T15:02:42.086Z,11.60
2022-09-27T15:04:16.720Z,11.60
2022-09-27T15:05:50.444Z,11.60
2022-09-27T15:07:24.857Z,11.60
2022-09-27T15:08:59.491Z,11.60
2022-09-27T15:10:37.553Z,11.60
2022-09-27T15:12:15.327Z,11.60
2022-09-27T15:13:54.379Z,11.60
2022-09-27T15:15:32.345Z,11.60
2022-09-27T15:17:06.447Z,11.60
2022-09-27T15:18:46.445Z,11.60
2022-09-27T15:20:32.214Z,11.60
2022-09-27T15:22:36.232Z,11.60
2022-09-27T15:24:44.437Z,11.60
2022-09-27T15:26:22.284Z,11.60
2022-09-27T15:27:57.024Z,11.60
2022-09-27T15:29:30.758Z,11.60
2022-09-27T15:31:05.706Z,11.60
2022-09-27T15:32:39.338Z,11.60
2022-09-27T15:34:24.096Z,11.70
2022-09-27T15:36:07.859Z,11.60
2022-09-27T15:37:44.075Z,11.60
2022-09-27T15:39:27.270Z,11.60
2022-09-27T15:41:14.562Z,11.60
2022-09-27T15:42:58.279Z,11.60
2022-09-27T15:44:45.861Z,11.60
2022-09-27T15:46:47.629Z,11.50
2022-09-27T15:48:22.636Z,11.60
2022-09-27T15:49:55.999Z,11.50
2022-09-27T15:51:43.160Z,11.50
2022-09-27T15:53:44.244Z,11.50
2022-09-27T15:55:19.523Z,11.50
2022-09-27T15:56:58.209Z,11.50
2022-09-27T15:58:32.516Z,11.50
2022-09-27T16:00:07.923Z,11.50
2022-09-27T16:02:04.241Z,11.40
2022-09-27T16:03:44.848Z,11.40
2022-09-27T16:05:18.232Z,11.40
2022-09-27T16:06:52.032Z,11.50
2022-09-27T16:08:25.998Z,11.40
2022-09-27T16:09:59.338Z,11.40
2022-09-27T16:11:32.769Z,11.30
2022-09-27T16:13:06.103Z,11.30
2022-09-27T16:14:39.499Z,11.30
2022-09-27T16:16:21.732Z,11.20
2022-09-27T16:17:57.683Z,11.30
2022-09-27T16:19:30.994Z,11.30
2022-09-27T16:21:04.708Z,11.20
2022-09-27T16:22:37.962Z,11.20
2022-09-27T16:24:11.839Z,11.20
2022-09-27T16:25:45.281Z,11.20
2022-09-27T16:27:24.759Z,11.20
2022-09-27T16:28:58.561Z,11.20
2022-09-27T16:30:32.809Z,11.30
2022-09-27T16:32:06.883Z,11.20
2022-09-27T16:33:41.711Z,11.20
2022-09-27T16:35:17.923Z,11.20
2022-09-27T16:36:51.618Z,11.20
2022-09-27T16:38:27.012Z,11.20
2022-09-27T16:40:00.405Z,11.20
2022-09-27T16:41:35.677Z,11.20
2022-09-27T16:43:09.001Z,11.20
2022-09-27T16:44:42.941Z,11.20
2022-09-27T16:46:19.236Z,11.10
2022-09-27T16:47:52.568Z,11.10
2022-09-27T16:49:44.975Z,11.10
2022-09-27T16:51:50.614Z,11.20
2022-09-27T16:53:24.425Z,11.10
2022-09-27T16:54:57.891Z,11.10
2022-09-27T16:56:32.150Z,11.10
2022-09-27T16:58:07.307Z,11.00
2022-09-27T16:59:40.746Z,11.10
2022-09-27T17:01:16.725Z,11.00
2022-09-27T17:02:51.816Z,11.10
2022-09-27T17:04:29.432Z,11.00
2022-09-27T17:06:04.309Z,11.00
2022-09-27T17:07:37.707Z,11.00
2022-09-27T17:09:12.140Z,11.00
2022-09-27T17:10:46.534Z,11.00
2022-09-27T17:12:20.441Z,11.00
2022-09-27T17:13:56.984Z,11.00
2022-09-27T17:15:31.290Z,11.00
2022-09-27T17:17:04.541Z,11.00
2022-09-27T17:18:39.109Z,10.90
2022-09-27T17:20:13.958Z,10.90
2022-09-27T17:21:47.782Z,10.90
2022-09-27T17:23:21.012Z,10.90
2022-09-27T17:24:54.379Z,10.90
2022-09-27T17:26:30.500Z,10.90
2022-09-27T17:28:03.983Z,10.90
2022-09-27T17:29:38.684Z,10.90
2022-09-27T17:31:15.516Z,10.90
2022-09-27T17:32:48.923Z,10.80
2022-09-27T17:34:23.091Z,10.90
2022-09-27T17:36:02.403Z,10.80
2022-09-27T17:37:35.920Z,10.80
2022-09-27T17:39:12.733Z,10.80
2022-09-27T17:40:46.223Z,10.80
2022-09-27T17:42:19.842Z,10.90
2022-09-27T17:43:55.520Z,10.80
2022-09-27T17:45:28.905Z,10.70
2022-09-27T17:47:19.783Z,10.70
2022-09-27T17:49:10.907Z,10.70
2022-09-27T17:50:47.975Z,10.70
2022-09-27T17:52:23.411Z,10.70
2022-09-27T17:53:57.007Z,10.70
2022-09-27T17:55:32.547Z,10.70
2022-09-27T17:57:05.904Z,10.70
2022-09-27T17:58:39.625Z,10.60
2022-09-27T18:00:13.418Z,10.50
2022-09-27T18:01:49.490Z,10.60
2022-09-27T18:03:22.802Z,10.50
2022-09-27T18:04:56.243Z,10.50
2022-09-27T18:06:30.245Z,10.50
2022-09-27T18:08:05.086Z,10.40
2022-09-27T18:09:38.304Z,10.40
2022-09-27T18:11:13.734Z,10.40
2022-09-27T18:12:47.439Z,10.40
2022-09-27T18:14:22.108Z,10.30
2022-09-27T18:15:59.754Z,10.40
2022-09-27T18:17:33.696Z,10.30
2022-09-27T18:19:11.828Z,10.30
2022-09-27T18:20:45.408Z,10.20
2022-09-27T18:22:20.194Z,10.20
2022-09-27T18:23:57.499Z,10.20
2022-09-27T18:25:30.907Z,10.20
2022-09-27T18:27:04.274Z,10.20
2022-09-27T18:28:39.883Z,10.10
2022-09-27T18:30:13.694Z,10.10
2022-09-27T18:31:49.088Z,10.10
2022-09-27T18:33:22.832Z,10.00
2022-09-27T18:34:56.580Z,10.00
2022-09-27T18:36:30.282Z,10.00
2022-09-27T18:38:04.246Z,10.00
2022-09-27T18:39:40.274Z,9.90
2022-09-27T18:41:16.621Z,9.90
2022-09-27T18:42:50.320Z,9.90
2022-09-27T18:44:23.807Z,9.90
2022-09-27T18:46:07.650Z,9.90
2022-09-27T18:47:50.629Z,9.80
2022-09-27T18:49:27.058Z,9.90
2022-09-27T18:51:09.183Z,9.80
2022-09-27T18:52:42.667Z,9.70
2022-09-27T18:54:19.239Z,9.70
2022-09-27T18:55:54.466Z,9.70
2022-09-27T18:57:28.136Z,9.60
2022-09-27T18:59:01.504Z,9.60
2022-09-27T19:00:34.922Z,9.60
2022-09-27T19:02:13.769Z,9.60
2022-09-27T19:03:47.644Z,9.60
2022-09-27T19:05:21.164Z,9.50
2022-09-27T19:06:57.733Z,9.50
2022-09-27T19:08:34.249Z,9.50
2022-09-27T19:10:10.098Z,9.50
2022-09-27T19:11:45.013Z,9.40
2022-09-27T19:13:24.081Z,9.40
2022-09-27T19:15:01.492Z,9.40
2022-09-27T19:16:35.574Z,9.30
2022-09-27T19:18:09.428Z,9.40
2022-09-27T19:19:42.967Z,9.30
2022-09-27T19:21:20.773Z,9.30
2022-09-27T19:22:56.171Z,9.30
2022-09-27T19:24:29.560Z,9.30
2022-09-27T19:26:04.783Z,9.30
2022-09-27T19:27:43.082Z,9.30
2022-09-27T19:29:19.888Z,9.20
2022-09-27T19:30:53.377Z,9.20
2022-09-27T19:32:27.734Z,9.20
2022-09-27T19:34:01.081Z,9.20
2022-09-27T19:35:34.533Z,9.20
2022-09-27T19:37:07.968Z,9.20
2022-09-27T19:38:41.540Z,9.20
2022-09-27T19:40:15.252Z,9.20
2022-09-27T19:41:48.737Z,9.20
2022-09-27T19:43:23.659Z,9.20
2022-09-27T19:44:57.352Z,9.20
2022-09-27T19:46:30.829Z,9.20
2022-09-27T19:48:04.289Z,9.20
2022-09-27T19:49:37.628Z,9.20
2022-09-27T19:51:15.545Z,9.20
2022-09-27T19:52:49.475Z,9.10
2022-09-27T19:54:24.031Z,9.10
2022-09-27T19:55:59.374Z,9.10
2022-09-27T19:57:33.165Z,9.10
2022-09-27T19:59:07.963Z,9.20
2022-09-27T20:00:41.252Z,9.10
2022-09-27T20:02:14.910Z,9.10
2022-09-27T20:03:50.382Z,9.10
2022-09-27T20:05:23.866Z,9.10
2022-09-27T20:06:57.231Z,9.10
2022-09-27T20:08:31.208Z,9.10
2022-09-27T20:10:05.488Z,9.00
2022-09-27T20:11:39.260Z,9.00
2022-09-27T20:13:12.716Z,9.00
2022-09-27T20:14:47.387Z,9.00
2022-09-27T20:16:23.395Z,8.90
2022-09-27T20:17:58.106Z,9.00
2022-09-27T20:19:31.396Z,8.90
2022-09-27T20:21:05.998Z,8.90
2022-09-27T20:22:39.463Z,8.90
2022-09-27T20:24:14.173Z,8.90
2022-09-27T20:25:49.092Z,8.90
2022-09-27T20:27:31.392Z,8.80
2022-09-27T20:29:07.429Z,8.80
2022-09-27T20:30:42.680Z,8.80
2022-09-27T20:32:27.179Z,8.80
2022-09-27T20:34:01.813Z,8.70
2022-09-27T20:35:36.188Z,8.70
2022-09-27T20:37:10.006Z,8.70
2022-09-27T20:38:44.418Z,8.70
2022-09-27T20:40:18.321Z,8.70
2022-09-27T20:41:51.803Z,8.60
2022-09-27T20:43:26.401Z,8.60
2022-09-27T20:45:05.873Z,8.60
2022-09-27T20:46:53.144Z,8.60
2022-09-27T20:48:25.843Z,8.60
2022-09-27T20:49:59.122Z,8.50
2022-09-27T20:51:35.118Z,8.60
2022-09-27T20:53:08.347Z,8.50
2022-09-27T20:54:41.702Z,8.50
2022-09-27T20:56:18.364Z,8.50
2022-09-27T20:57:57.834Z,8.50
2022-09-27T20:59:31.359Z,8.50
2022-09-27T21:01:08.653Z,8.50
2022-09-27T21:02:43.479Z,8.50
2022-09-27T21:04:19.990Z,8.50
2022-09-27T21:05:56.709Z,8.50
2022-09-27T21:07:30.059Z,8.50
2022-09-27T21:09:09.531Z,8.50
2022-09-27T21:10:43.035Z,8.50
2022-09-27T21:12:16.400Z,8.50
2022-09-27T21:13:51.795Z,8.50
2022-09-27T21:15:25.255Z,8.50
2022-09-27T21:17:01.770Z,8.50
2022-09-27T21:18:37.381Z,8.50
2022-09-27T21:20:11.176Z,8.50
2022-09-27T21:21:44.539Z,8.50
2022-09-27T21:23:17.907Z,8.50
2022-09-27T21:24:51.456Z,8.50
2022-09-27T21:26:26.493Z,8.50
2022-09-27T21:27:58.878Z,8.50
2022-09-27T21:29:32.488Z,8.50
2022-09-27T21:31:10.600Z,8.50
2022-09-27T21:32:44.115Z,8.50
2022-09-27T21:34:18.747Z,8.50
2022-09-27T21:35:52.154Z,8.50
2022-09-27T21:37:25.807Z,8.50
2022-09-27T21:38:59.945Z,8.50
2022-09-27T21:40:33.764Z,8.50
2022-09-27T21:42:07.864Z,8.50
2022-09-27T21:43:41.997Z,8.50
2022-09-27T21:45:15.414Z,8.50
2022-09-27T21:46:50.314Z,8.50
2022-09-27T21:48:22.794Z,8.50
2022-09-27T21:49:57.384Z,8.50
2022-09-27T21:51:33.399Z,8.50
2022-09-27T21:53:06.957Z,8.50
2022-09-27T21:54:40.795Z,8.50
2022-09-27T21:56:14.084Z,8.60
2022-09-27T21:57:47.580Z,8.60
2022-09-27T21:59:20.787Z,8.60
2022-09-27T22:00:54.183Z,8.60
2022-09-27T22:02:27.529Z,8.60
2022-09-27T22:04:03.163Z,8.60
2022-09-27T22:05:45.404Z,8.60
2022-09-27T22:07:19.915Z,8.60